sensor_id;sensor_type;location;lat;lon;timestamp;pressure;altitude;pressure_sealevel;temperature;humidity
68137;BME280;54939;50.826;9.030;2023-07-29T00:00:12;98013.50;;;22.01;53.19
68137;BME280;54939;50.826;9.030;2023-07-29T00:00:43;98011.59;;;22.02;53.32
68137;BME280;54939;50.826;9.030;2023-07-29T00:01:13;98008.06;;;22.01;53.02
68137;BME280;54939;50.826;9.030;2023-07-29T00:01:43;98009.72;;;22.02;53.38
68137;BME280;54939;50.826;9.030;2023-07-29T00:02:13;98009.94;;;22.00;53.33
68137;BME280;54939;50.826;9.030;2023-07-29T00:02:44;98003.69;;;22.00;53.15
68137;BME280;54939;50.826;9.030;2023-07-29T00:03:14;98001.78;;;22.00;53.20
68137;BME280;54939;50.826;9.030;2023-07-29T00:03:44;98008.06;;;22.01;53.17
68137;BME280;54939;50.826;9.030;2023-07-29T00:04:14;98003.44;;;22.02;53.24
68137;BME280;54939;50.826;9.030;2023-07-29T00:04:44;97993.63;;;22.00;53.22
68137;BME280;54939;50.826;9.030;2023-07-29T00:05:15;98000.72;;;22.02;53.16
68137;BME280;54939;50.826;9.030;2023-07-29T00:05:45;97990.94;;;22.00;53.15
68137;BME280;54939;50.826;9.030;2023-07-29T00:06:15;98001.78;;;22.00;53.14
68137;BME280;54939;50.826;9.030;2023-07-29T00:06:45;97996.34;;;22.00;53.15
68137;BME280;54939;50.826;9.030;2023-07-29T00:07:15;98001.78;;;22.00;53.07
68137;BME280;54939;50.826;9.030;2023-07-29T00:07:46;97996.34;;;22.00;53.04
68137;BME280;54939;50.826;9.030;2023-07-29T00:08:16;97994.47;;;22.01;53.29
68137;BME280;54939;50.826;9.030;2023-07-29T00:08:46;97996.34;;;22.00;53.23
68137;BME280;54939;50.826;9.030;2023-07-29T00:09:16;97998.00;;;22.02;53.36
68137;BME280;54939;50.826;9.030;2023-07-29T00:09:46;98009.13;;;22.00;53.21
68137;BME280;54939;50.826;9.030;2023-07-29T00:10:17;98001.78;;;22.00;53.12
68137;BME280;54939;50.826;9.030;2023-07-29T00:10:47;98000.72;;;22.02;53.11
68137;BME280;54939;50.826;9.030;2023-07-29T00:11:17;97993.41;;;22.02;53.25
68137;BME280;54939;50.826;9.030;2023-07-29T00:11:47;98002.63;;;22.01;53.10
68137;BME280;54939;50.826;9.030;2023-07-29T00:12:18;98007.00;;;22.02;53.03
68137;BME280;54939;50.826;9.030;2023-07-29T00:12:48;98001.56;;;22.02;53.17
68137;BME280;54939;50.826;9.030;2023-07-29T00:13:18;98006.16;;;22.02;53.04
68137;BME280;54939;50.826;9.030;2023-07-29T00:13:48;98008.06;;;22.01;53.05
68137;BME280;54939;50.826;9.030;2023-07-29T00:14:20;98007.81;;;22.03;52.99
68137;BME280;54939;50.826;9.030;2023-07-29T00:14:50;98011.59;;;22.02;52.99
68137;BME280;54939;50.826;9.030;2023-07-29T00:15:20;97994.22;;;22.03;53.19
68137;BME280;54939;50.826;9.030;2023-07-29T00:15:53;97998.00;;;22.02;53.11
68137;BME280;54939;50.826;9.030;2023-07-29T00:16:23;97993.41;;;22.02;53.05
68137;BME280;54939;50.826;9.030;2023-07-29T00:16:53;97998.84;;;22.02;53.03
68137;BME280;54939;50.826;9.030;2023-07-29T00:17:23;97990.69;;;22.02;52.84
68137;BME280;54939;50.826;9.030;2023-07-29T00:17:54;97987.97;;;22.02;53.06
68137;BME280;54939;50.826;9.030;2023-07-29T00:18:24;97992.56;;;22.02;52.97
68137;BME280;54939;50.826;9.030;2023-07-29T00:18:54;97981.69;;;22.02;53.08
68137;BME280;54939;50.826;9.030;2023-07-29T00:19:24;97981.69;;;22.02;53.15
68137;BME280;54939;50.826;9.030;2023-07-29T00:19:54;97976.28;;;22.02;53.04
68137;BME280;54939;50.826;9.030;2023-07-29T00:20:25;97977.34;;;22.00;53.21
68137;BME280;54939;50.826;9.030;2023-07-29T00:20:55;97982.78;;;22.00;53.13
68137;BME280;54939;50.826;9.030;2023-07-29T00:21:25;97971.06;;;22.00;53.15
68137;BME280;54939;50.826;9.030;2023-07-29T00:21:56;97972.72;;;22.01;53.24
68137;BME280;54939;50.826;9.030;2023-07-29T00:22:26;97979.22;;;22.00;53.19
68137;BME280;54939;50.826;9.030;2023-07-29T00:22:56;97980.88;;;22.01;53.16
68137;BME280;54939;50.826;9.030;2023-07-29T00:23:28;97969.19;;;22.00;52.83
68137;BME280;54939;50.826;9.030;2023-07-29T00:23:59;97982.78;;;22.00;53.26
68137;BME280;54939;50.826;9.030;2023-07-29T00:24:31;97982.78;;;22.00;53.13
68137;BME280;54939;50.826;9.030;2023-07-29T00:25:01;97979.22;;;22.00;53.12
68137;BME280;54939;50.826;9.030;2023-07-29T00:25:31;97976.50;;;22.00;53.36
68137;BME280;54939;50.826;9.030;2023-07-29T00:26:01;97983.59;;;22.01;53.20
68137;BME280;54939;50.826;9.030;2023-07-29T00:26:32;97973.78;;;22.00;53.17
68137;BME280;54939;50.826;9.030;2023-07-29T00:27:02;97978.16;;;22.01;53.05
68137;BME280;54939;50.826;9.030;2023-07-29T00:27:32;97980.88;;;22.01;52.91
68137;BME280;54939;50.826;9.030;2023-07-29T00:28:02;97979.22;;;22.00;53.14
68137;BME280;54939;50.826;9.030;2023-07-29T00:28:33;97972.97;;;21.99;52.98
68137;BME280;54939;50.826;9.030;2023-07-29T00:29:03;97977.34;;;22.00;53.04
68137;BME280;54939;50.826;9.030;2023-07-29T00:29:33;97976.50;;;22.00;53.08
68137;BME280;54939;50.826;9.030;2023-07-29T00:30:03;97975.69;;;21.99;53.03
68137;BME280;54939;50.826;9.030;2023-07-29T00:30:34;97976.50;;;22.00;53.00
68137;BME280;54939;50.826;9.030;2023-07-29T00:31:04;97974.63;;;22.00;53.00
68137;BME280;54939;50.826;9.030;2023-07-29T00:31:35;97968.34;;;22.00;52.99
68137;BME280;54939;50.826;9.030;2023-07-29T00:32:05;97966.47;;;22.00;53.01
68137;BME280;54939;50.826;9.030;2023-07-29T00:32:35;97972.72;;;22.01;52.93
68137;BME280;54939;50.826;9.030;2023-07-29T00:33:06;97974.63;;;22.00;53.13
68137;BME280;54939;50.826;9.030;2023-07-29T00:33:36;97968.34;;;22.00;53.34
68137;BME280;54939;50.826;9.030;2023-07-29T00:34:06;97977.34;;;22.00;53.04
68137;BME280;54939;50.826;9.030;2023-07-29T00:34:36;97979.22;;;22.00;53.03
68137;BME280;54939;50.826;9.030;2023-07-29T00:35:07;97977.34;;;22.00;53.06
68137;BME280;54939;50.826;9.030;2023-07-29T00:35:37;97978.41;;;21.99;52.99
68137;BME280;54939;50.826;9.030;2023-07-29T00:36:07;97983.59;;;22.01;53.08
68137;BME280;54939;50.826;9.030;2023-07-29T00:36:37;97982.78;;;22.00;53.00
68137;BME280;54939;50.826;9.030;2023-07-29T00:37:07;97981.94;;;22.00;53.22
68137;BME280;54939;50.826;9.030;2023-07-29T00:37:38;97986.31;;;22.01;53.02
68137;BME280;54939;50.826;9.030;2023-07-29T00:38:08;97981.69;;;22.02;53.17
68137;BME280;54939;50.826;9.030;2023-07-29T00:38:38;97981.69;;;22.02;53.17
68137;BME280;54939;50.826;9.030;2023-07-29T00:39:08;97993.41;;;22.02;53.12
68137;BME280;54939;50.826;9.030;2023-07-29T00:39:39;97985.50;;;22.00;53.01
68137;BME280;54939;50.826;9.030;2023-07-29T00:40:12;97982.78;;;22.00;52.95
68137;BME280;54939;50.826;9.030;2023-07-29T00:40:43;97983.59;;;22.01;53.19
68137;BME280;54939;50.826;9.030;2023-07-29T00:41:14;97990.94;;;22.00;53.00
68137;BME280;54939;50.826;9.030;2023-07-29T00:41:44;97990.94;;;22.00;53.15
68137;BME280;54939;50.826;9.030;2023-07-29T00:42:14;98000.97;;;22.00;53.19
68137;BME280;54939;50.826;9.030;2023-07-29T00:42:45;98002.63;;;22.01;53.08
68137;BME280;54939;50.826;9.030;2023-07-29T00:43:15;97996.34;;;22.00;53.20
68137;BME280;54939;50.826;9.030;2023-07-29T00:43:45;97990.94;;;22.00;53.03
68137;BME280;54939;50.826;9.030;2023-07-29T00:44:15;97999.91;;;22.01;53.27
68137;BME280;54939;50.826;9.030;2023-07-29T00:44:46;98001.78;;;22.00;53.22
68137;BME280;54939;50.826;9.030;2023-07-29T00:45:16;97999.06;;;22.00;52.89
68137;BME280;54939;50.826;9.030;2023-07-29T00:45:46;97999.91;;;22.01;53.25
68137;BME280;54939;50.826;9.030;2023-07-29T00:46:17;98004.50;;;22.00;53.28
68137;BME280;54939;50.826;9.030;2023-07-29T00:46:49;98003.44;;;22.02;52.85
68137;BME280;54939;50.826;9.030;2023-07-29T00:47:20;97995.53;;;22.00;53.25
68137;BME280;54939;50.826;9.030;2023-07-29T00:47:51;97999.91;;;22.01;52.96
68137;BME280;54939;50.826;9.030;2023-07-29T00:48:21;97996.34;;;22.00;53.26
68137;BME280;54939;50.826;9.030;2023-07-29T00:48:52;97996.34;;;22.00;53.06
68137;BME280;54939;50.826;9.030;2023-07-29T00:49:22;97997.19;;;22.01;53.16
68137;BME280;54939;50.826;9.030;2023-07-29T00:49:52;97999.91;;;22.01;53.05
68137;BME280;54939;50.826;9.030;2023-07-29T00:50:22;97994.47;;;22.01;52.98
68137;BME280;54939;50.826;9.030;2023-07-29T00:50:53;97997.19;;;22.01;52.98
68137;BME280;54939;50.826;9.030;2023-07-29T00:51:24;97990.09;;;22.00;53.12
68137;BME280;54939;50.826;9.030;2023-07-29T00:51:54;97990.94;;;22.00;53.17
68137;BME280;54939;50.826;9.030;2023-07-29T00:52:25;97995.53;;;22.00;52.94
68137;BME280;54939;50.826;9.030;2023-07-29T00:52:55;97990.09;;;22.00;53.26
68137;BME280;54939;50.826;9.030;2023-07-29T00:53:26;97999.91;;;22.01;53.36
68137;BME280;54939;50.826;9.030;2023-07-29T00:53:56;97988.22;;;22.00;53.02
68137;BME280;54939;50.826;9.030;2023-07-29T00:54:26;97995.53;;;22.00;53.08
68137;BME280;54939;50.826;9.030;2023-07-29T00:54:56;97995.53;;;22.00;53.32
68137;BME280;54939;50.826;9.030;2023-07-29T00:55:27;97993.88;;;21.99;53.13
68137;BME280;54939;50.826;9.030;2023-07-29T00:55:58;97996.34;;;22.00;53.31
68137;BME280;54939;50.826;9.030;2023-07-29T00:56:28;97990.09;;;22.00;53.07
68137;BME280;54939;50.826;9.030;2023-07-29T00:56:58;97996.34;;;22.00;53.29
68137;BME280;54939;50.826;9.030;2023-07-29T00:57:29;97995.53;;;22.00;53.27
68137;BME280;54939;50.826;9.030;2023-07-29T00:57:59;97994.72;;;21.99;53.18
68137;BME280;54939;50.826;9.030;2023-07-29T00:58:30;97984.66;;;22.00;52.98
68137;BME280;54939;50.826;9.030;2023-07-29T00:59:01;97987.38;;;22.00;52.95
68137;BME280;54939;50.826;9.030;2023-07-29T00:59:31;97987.38;;;22.00;53.10
68137;BME280;54939;50.826;9.030;2023-07-29T01:00:02;97984.66;;;22.00;53.25
68137;BME280;54939;50.826;9.030;2023-07-29T01:00:33;97984.66;;;22.00;52.96
68137;BME280;54939;50.826;9.030;2023-07-29T01:01:03;97982.78;;;22.00;52.89
68137;BME280;54939;50.826;9.030;2023-07-29T01:01:33;97978.41;;;21.99;52.91
68137;BME280;54939;50.826;9.030;2023-07-29T01:02:04;97980.28;;;21.99;52.99
68137;BME280;54939;50.826;9.030;2023-07-29T01:02:34;97985.50;;;22.00;53.05
68137;BME280;54939;50.826;9.030;2023-07-29T01:03:05;97980.06;;;22.00;52.90
68137;BME280;54939;50.826;9.030;2023-07-29T01:03:35;97977.34;;;22.00;52.78
68137;BME280;54939;50.826;9.030;2023-07-29T01:04:05;97980.88;;;22.01;53.21
68137;BME280;54939;50.826;9.030;2023-07-29T01:04:36;97970.00;;;22.01;52.94
68137;BME280;54939;50.826;9.030;2023-07-29T01:05:06;97973.78;;;22.00;53.04
68137;BME280;54939;50.826;9.030;2023-07-29T01:05:39;97973.78;;;22.00;52.99
68137;BME280;54939;50.826;9.030;2023-07-29T01:07:49;97983.00;;;21.99;53.17
68137;BME280;54939;50.826;9.030;2023-07-29T01:08:31;97980.28;;;21.99;52.93
68137;BME280;54939;50.826;9.030;2023-07-29T01:09:07;97983.00;;;21.99;53.43
68137;BME280;54939;50.826;9.030;2023-07-29T01:10:39;97974.84;;;21.99;53.74
68137;BME280;54939;50.826;9.030;2023-07-29T01:11:20;97973.22;;;21.98;53.66
68137;BME280;54939;50.826;9.030;2023-07-29T01:12:09;97978.66;;;21.98;53.61
68137;BME280;54939;50.826;9.030;2023-07-29T01:13:33;97979.50;;;21.98;53.35
68137;BME280;54939;50.826;9.030;2023-07-29T01:14:12;97981.38;;;21.98;53.58
68137;BME280;54939;50.826;9.030;2023-07-29T01:14:50;97975.94;;;21.98;53.76
68137;BME280;54939;50.826;9.030;2023-07-29T01:15:42;97984.09;;;21.98;53.61
68137;BME280;54939;50.826;9.030;2023-07-29T01:16:16;97986.81;;;21.98;53.43
68137;BME280;54939;50.826;9.030;2023-07-29T01:16:50;97980.28;;;21.99;53.67
68137;BME280;54939;50.826;9.030;2023-07-29T01:17:23;97976.78;;;21.98;53.87
68137;BME280;54939;50.826;9.030;2023-07-29T01:17:54;97979.72;;;21.97;53.61
68137;BME280;54939;50.826;9.030;2023-07-29T01:18:31;97977.84;;;21.97;53.66
68137;BME280;54939;50.826;9.030;2023-07-29T01:19:05;97978.66;;;21.98;53.76
68137;BME280;54939;50.826;9.030;2023-07-29T01:20:24;97978.66;;;21.98;53.52
68137;BME280;54939;50.826;9.030;2023-07-29T01:20:57;97975.13;;;21.97;53.48
68137;BME280;54939;50.826;9.030;2023-07-29T01:21:28;97976.78;;;21.98;53.57
68137;BME280;54939;50.826;9.030;2023-07-29T01:21:59;97969.69;;;21.97;53.85
68137;BME280;54939;50.826;9.030;2023-07-29T01:22:29;97967.78;;;21.98;53.60
68137;BME280;54939;50.826;9.030;2023-07-29T01:23:00;97970.50;;;21.98;53.51
68137;BME280;54939;50.826;9.030;2023-07-29T01:23:31;97968.84;;;21.97;53.89
68137;BME280;54939;50.826;9.030;2023-07-29T01:24:01;97970.50;;;21.98;53.67
68137;BME280;54939;50.826;9.030;2023-07-29T01:24:32;97967.78;;;21.98;53.62
68137;BME280;54939;50.826;9.030;2023-07-29T01:25:03;97967.78;;;21.98;53.54
68137;BME280;54939;50.826;9.030;2023-07-29T01:25:33;97973.22;;;21.98;53.56
68137;BME280;54939;50.826;9.030;2023-07-29T01:26:03;97970.50;;;21.98;53.44
68137;BME280;54939;50.826;9.030;2023-07-29T01:26:34;97962.38;;;21.98;53.28
68137;BME280;54939;50.826;9.030;2023-07-29T01:27:04;97963.97;;;21.99;53.34
68137;BME280;54939;50.826;9.030;2023-07-29T01:27:35;97967.53;;;21.99;53.44
68137;BME280;54939;50.826;9.030;2023-07-29T01:28:05;97964.81;;;21.99;53.61
68137;BME280;54939;50.826;9.030;2023-07-29T01:28:35;97967.53;;;21.99;53.38
68137;BME280;54939;50.826;9.030;2023-07-29T01:29:06;97960.47;;;21.98;53.67
68137;BME280;54939;50.826;9.030;2023-07-29T01:29:36;97968.63;;;21.98;53.44
68137;BME280;54939;50.826;9.030;2023-07-29T01:30:06;97961.25;;;21.99;53.35
68137;BME280;54939;50.826;9.030;2023-07-29T01:30:40;97961.53;;;21.97;53.82
68137;BME280;54939;50.826;9.030;2023-07-29T01:31:13;97962.38;;;21.98;53.48
68137;BME280;54939;50.826;9.030;2023-07-29T01:31:46;97959.66;;;21.98;53.40
68137;BME280;54939;50.826;9.030;2023-07-29T01:32:34;97959.66;;;21.98;53.69
68137;BME280;54939;50.826;9.030;2023-07-29T01:33:16;97961.25;;;21.99;53.59
68137;BME280;54939;50.826;9.030;2023-07-29T01:34:09;97965.91;;;21.98;53.82
68137;BME280;54939;50.826;9.030;2023-07-29T01:35:27;97965.91;;;21.98;53.65
68137;BME280;54939;50.826;9.030;2023-07-29T01:35:31;97959.66;;;21.98;53.15
68137;BME280;54939;50.826;9.030;2023-07-29T01:36:06;97962.09;;;21.99;53.63
68137;BME280;54939;50.826;9.030;2023-07-29T01:36:38;97961.25;;;21.99;53.79
68137;BME280;54939;50.826;9.030;2023-07-29T01:37:12;97963.19;;;21.98;53.63
68137;BME280;54939;50.826;9.030;2023-07-29T01:37:47;97966.69;;;21.99;53.60
68137;BME280;54939;50.826;9.030;2023-07-29T01:38:24;97968.63;;;21.98;53.46
68137;BME280;54939;50.826;9.030;2023-07-29T01:38:58;97960.47;;;21.98;53.45
68137;BME280;54939;50.826;9.030;2023-07-29T01:39:29;97961.25;;;21.99;53.70
68137;BME280;54939;50.826;9.030;2023-07-29T01:40:02;97962.38;;;21.98;53.81
68137;BME280;54939;50.826;9.030;2023-07-29T01:40:33;97962.38;;;21.98;53.68
68137;BME280;54939;50.826;9.030;2023-07-29T01:41:06;97952.75;;;21.95;53.61
68137;BME280;54939;50.826;9.030;2023-07-29T01:41:37;97959.66;;;21.98;53.48
68137;BME280;54939;50.826;9.030;2023-07-29T01:42:07;97958.53;;;21.99;53.37
68137;BME280;54939;50.826;9.030;2023-07-29T01:42:38;97956.94;;;21.98;54.24
68137;BME280;54939;50.826;9.030;2023-07-29T01:43:08;97953.38;;;21.97;54.35
68137;BME280;54939;50.826;9.030;2023-07-29T01:43:38;97955.03;;;21.98;54.54
68137;BME280;54939;50.826;9.030;2023-07-29T01:44:13;97957.75;;;21.98;53.63
68137;BME280;54939;50.826;9.030;2023-07-29T01:44:44;97952.31;;;21.98;53.86
68137;BME280;54939;50.826;9.030;2023-07-29T01:45:14;97959.66;;;21.98;53.99
68137;BME280;54939;50.826;9.030;2023-07-29T01:45:44;97958.81;;;21.97;54.23
68137;BME280;54939;50.826;9.030;2023-07-29T01:46:14;97953.38;;;21.97;53.75
68137;BME280;54939;50.826;9.030;2023-07-29T01:46:45;97951.50;;;21.98;54.07
68137;BME280;54939;50.826;9.030;2023-07-29T01:47:15;97954.22;;;21.98;53.58
68137;BME280;54939;50.826;9.030;2023-07-29T01:47:46;97956.94;;;21.98;54.04
68137;BME280;54939;50.826;9.030;2023-07-29T01:48:16;97952.31;;;21.98;53.92
68137;BME280;54939;50.826;9.030;2023-07-29T01:48:47;97952.31;;;21.98;53.80
68137;BME280;54939;50.826;9.030;2023-07-29T01:49:17;97948.78;;;21.98;53.63
68137;BME280;54939;50.826;9.030;2023-07-29T01:49:47;97953.38;;;21.97;53.81
68137;BME280;54939;50.826;9.030;2023-07-29T01:50:18;97948.19;;;21.96;53.62
68137;BME280;54939;50.826;9.030;2023-07-29T01:50:48;97953.13;;;21.99;53.75
68137;BME280;54939;50.826;9.030;2023-07-29T01:51:18;97948.78;;;21.98;53.57
68137;BME280;54939;50.826;9.030;2023-07-29T01:51:48;97942.50;;;21.97;53.87
68137;BME280;54939;50.826;9.030;2023-07-29T01:52:18;97945.22;;;21.97;54.00
68137;BME280;54939;50.826;9.030;2023-07-29T01:52:49;97954.22;;;21.98;53.76
68137;BME280;54939;50.826;9.030;2023-07-29T01:53:19;97957.75;;;21.98;54.11
68137;BME280;54939;50.826;9.030;2023-07-29T01:53:49;97946.88;;;21.98;53.69
68137;BME280;54939;50.826;9.030;2023-07-29T01:54:19;97948.78;;;21.98;53.67
68137;BME280;54939;50.826;9.030;2023-07-29T01:54:49;97949.84;;;21.97;54.11
68137;BME280;54939;50.826;9.030;2023-07-29T01:55:20;97950.66;;;21.97;53.79
68137;BME280;54939;50.826;9.030;2023-07-29T01:55:50;97950.66;;;21.97;53.71
68137;BME280;54939;50.826;9.030;2023-07-29T01:56:20;97950.66;;;21.97;53.57
68137;BME280;54939;50.826;9.030;2023-07-29T01:56:50;97954.22;;;21.98;53.76
68137;BME280;54939;50.826;9.030;2023-07-29T01:57:21;97950.66;;;21.97;53.65
68137;BME280;54939;50.826;9.030;2023-07-29T01:57:51;97951.50;;;21.98;53.26
68137;BME280;54939;50.826;9.030;2023-07-29T01:58:21;97949.84;;;21.97;53.21
68137;BME280;54939;50.826;9.030;2023-07-29T01:58:52;97949.59;;;21.98;53.73
68137;BME280;54939;50.826;9.030;2023-07-29T01:59:22;97951.50;;;21.98;53.66
68137;BME280;54939;50.826;9.030;2023-07-29T01:59:52;97947.13;;;21.97;53.66
68137;BME280;54939;50.826;9.030;2023-07-29T02:00:22;97942.50;;;21.97;53.81
68137;BME280;54939;50.826;9.030;2023-07-29T02:00:52;97940.63;;;21.98;53.89
68137;BME280;54939;50.826;9.030;2023-07-29T02:01:23;97939.78;;;21.97;54.29
68137;BME280;54939;50.826;9.030;2023-07-29T02:01:53;97940.63;;;21.98;53.63
68137;BME280;54939;50.826;9.030;2023-07-29T02:02:23;97940.63;;;21.98;53.75
68137;BME280;54939;50.826;9.030;2023-07-29T02:02:53;97931.63;;;21.97;53.77
68137;BME280;54939;50.826;9.030;2023-07-29T02:03:23;97935.19;;;21.98;53.66
68137;BME280;54939;50.826;9.030;2023-07-29T02:03:53;97933.53;;;21.97;53.74
68137;BME280;54939;50.826;9.030;2023-07-29T02:04:24;97935.19;;;21.98;53.92
68137;BME280;54939;50.826;9.030;2023-07-29T02:04:55;97930.81;;;21.97;53.98
68137;BME280;54939;50.826;9.030;2023-07-29T02:05:25;97930.81;;;21.97;53.54
68137;BME280;54939;50.826;9.030;2023-07-29T02:05:56;97932.47;;;21.98;53.49
68137;BME280;54939;50.826;9.030;2023-07-29T02:06:26;97928.09;;;21.97;53.81
68137;BME280;54939;50.826;9.030;2023-07-29T02:06:57;97923.50;;;21.97;53.77
68137;BME280;54939;50.826;9.030;2023-07-29T02:07:27;97933.53;;;21.97;53.54
68137;BME280;54939;50.826;9.030;2023-07-29T02:07:57;97932.47;;;21.98;53.95
68137;BME280;54939;50.826;9.030;2023-07-29T02:08:28;97932.47;;;21.98;53.42
68137;BME280;54939;50.826;9.030;2023-07-29T02:08:58;97933.53;;;21.97;53.65
68137;BME280;54939;50.826;9.030;2023-07-29T02:09:28;97928.94;;;21.97;54.03
68137;BME280;54939;50.826;9.030;2023-07-29T02:09:59;97935.19;;;21.98;53.87
68137;BME280;54939;50.826;9.030;2023-07-29T02:10:29;97927.03;;;21.98;53.85
68137;BME280;54939;50.826;9.030;2023-07-29T02:11:00;97930.56;;;21.98;54.08
68137;BME280;54939;50.826;9.030;2023-07-29T02:11:30;97928.94;;;21.97;53.54
68137;BME280;54939;50.826;9.030;2023-07-29T02:12:00;97931.63;;;21.97;53.77
68137;BME280;54939;50.826;9.030;2023-07-29T02:12:30;97925.13;;;21.98;53.76
68137;BME280;54939;50.826;9.030;2023-07-29T02:13:01;97937.06;;;21.97;53.53
68137;BME280;54939;50.826;9.030;2023-07-29T02:13:31;97927.03;;;21.98;53.53
68137;BME280;54939;50.826;9.030;2023-07-29T02:14:01;97929.75;;;21.98;53.63
68137;BME280;54939;50.826;9.030;2023-07-29T02:14:31;97928.09;;;21.97;53.50
68137;BME280;54939;50.826;9.030;2023-07-29T02:15:01;97922.66;;;21.97;53.50
68137;BME280;54939;50.826;9.030;2023-07-29T02:15:32;97927.03;;;21.98;53.34
68137;BME280;54939;50.826;9.030;2023-07-29T02:16:02;97921.59;;;21.98;53.50
68137;BME280;54939;50.826;9.030;2023-07-29T02:16:32;97927.03;;;21.98;53.24
68137;BME280;54939;50.826;9.030;2023-07-29T02:17:04;97920.78;;;21.97;53.51
68137;BME280;54939;50.826;9.030;2023-07-29T02:17:34;97921.84;;;21.96;53.65
68137;BME280;54939;50.826;9.030;2023-07-29T02:18:05;97926.22;;;21.97;54.15
68137;BME280;54939;50.826;9.030;2023-07-29T02:18:36;97916.16;;;21.98;53.62
68137;BME280;54939;50.826;9.030;2023-07-29T02:19:07;97919.94;;;21.97;53.98
68137;BME280;54939;50.826;9.030;2023-07-29T02:19:37;97930.81;;;21.97;54.25
68137;BME280;54939;50.826;9.030;2023-07-29T02:20:07;97922.66;;;21.97;54.05
68137;BME280;54939;50.826;9.030;2023-07-29T02:20:38;97923.50;;;21.97;53.82
68137;BME280;54939;50.826;9.030;2023-07-29T02:21:08;97919.13;;;21.96;53.67
68137;BME280;54939;50.826;9.030;2023-07-29T02:21:39;97919.13;;;21.96;53.84
68137;BME280;54939;50.826;9.030;2023-07-29T02:22:10;97921.84;;;21.96;53.81
68137;BME280;54939;50.826;9.030;2023-07-29T02:22:40;97916.16;;;21.98;53.93
68137;BME280;54939;50.826;9.030;2023-07-29T02:23:10;97924.31;;;21.98;53.45
68137;BME280;54939;50.826;9.030;2023-07-29T02:23:41;97919.94;;;21.97;53.89
68137;BME280;54939;50.826;9.030;2023-07-29T02:24:11;97924.56;;;21.96;53.86
68137;BME280;54939;50.826;9.030;2023-07-29T02:24:41;97922.66;;;21.97;53.80
68137;BME280;54939;50.826;9.030;2023-07-29T02:25:11;97917.22;;;21.97;53.66
68137;BME280;54939;50.826;9.030;2023-07-29T02:25:41;97922.66;;;21.97;53.93
68137;BME280;54939;50.826;9.030;2023-07-29T02:26:11;97915.56;;;21.96;54.27
68137;BME280;54939;50.826;9.030;2023-07-29T02:26:42;97916.41;;;21.96;53.84
68137;BME280;54939;50.826;9.030;2023-07-29T02:27:12;97916.41;;;21.96;53.74
68137;BME280;54939;50.826;9.030;2023-07-29T02:27:42;97912.84;;;21.96;53.66
68137;BME280;54939;50.826;9.030;2023-07-29T02:28:12;97913.88;;;21.95;54.14
68137;BME280;54939;50.826;9.030;2023-07-29T02:28:43;97909.28;;;21.95;54.00
68137;BME280;54939;50.826;9.030;2023-07-29T02:29:13;97912.84;;;21.96;53.83
68137;BME280;54939;50.826;9.030;2023-07-29T02:29:43;97910.13;;;21.96;53.68
68137;BME280;54939;50.826;9.030;2023-07-29T02:30:13;97914.50;;;21.97;53.74
68137;BME280;54939;50.826;9.030;2023-07-29T02:30:43;97912.00;;;21.95;54.08
68137;BME280;54939;50.826;9.030;2023-07-29T02:31:20;97908.25;;;21.96;53.63
68137;BME280;54939;50.826;9.030;2023-07-29T02:31:50;97911.78;;;21.97;53.76
68137;BME280;54939;50.826;9.030;2023-07-29T02:32:21;97911.78;;;21.97;54.05
68137;BME280;54939;50.826;9.030;2023-07-29T02:32:51;97913.69;;;21.96;53.96
68137;BME280;54939;50.826;9.030;2023-07-29T02:33:21;97916.16;;;21.98;53.96
68137;BME280;54939;50.826;9.030;2023-07-29T02:33:51;97914.50;;;21.97;53.56
68137;BME280;54939;50.826;9.030;2023-07-29T02:34:22;97909.06;;;21.97;53.81
68137;BME280;54939;50.826;9.030;2023-07-29T02:34:52;97912.63;;;21.97;53.63
68137;BME280;54939;50.826;9.030;2023-07-29T02:35:22;97910.97;;;21.96;53.28
68137;BME280;54939;50.826;9.030;2023-07-29T02:35:52;97910.13;;;21.96;53.56
68137;BME280;54939;50.826;9.030;2023-07-29T02:36:22;97907.44;;;21.96;53.27
68137;BME280;54939;50.826;9.030;2023-07-29T02:36:52;97897.38;;;21.96;53.20
68137;BME280;54939;50.826;9.030;2023-07-29T02:37:23;97908.25;;;21.96;53.44
68137;BME280;54939;50.826;9.030;2023-07-29T02:37:53;97902.81;;;21.96;53.43
68137;BME280;54939;50.826;9.030;2023-07-29T02:38:23;97905.53;;;21.96;53.71
68137;BME280;54939;50.826;9.030;2023-07-29T02:38:53;97898.41;;;21.95;53.63
68137;BME280;54939;50.826;9.030;2023-07-29T02:39:23;97895.69;;;21.95;53.91
68137;BME280;54939;50.826;9.030;2023-07-29T02:39:54;97904.72;;;21.96;53.26
68137;BME280;54939;50.826;9.030;2023-07-29T02:40:24;97897.38;;;21.96;53.54
68137;BME280;54939;50.826;9.030;2023-07-29T02:40:56;97893.84;;;21.96;54.11
68137;BME280;54939;50.826;9.030;2023-07-29T02:41:26;97892.97;;;21.95;53.51
68137;BME280;54939;50.826;9.030;2023-07-29T02:41:57;97896.56;;;21.96;53.56
68137;BME280;54939;50.826;9.030;2023-07-29T02:42:28;97901.13;;;21.95;53.48
68137;BME280;54939;50.826;9.030;2023-07-29T02:42:58;97900.91;;;21.97;53.80
68137;BME280;54939;50.826;9.030;2023-07-29T02:43:28;97905.53;;;21.96;53.69
68137;BME280;54939;50.826;9.030;2023-07-29T02:43:58;97900.31;;;21.95;53.68
68137;BME280;54939;50.826;9.030;2023-07-29T02:44:29;97901.13;;;21.95;53.48
68137;BME280;54939;50.826;9.030;2023-07-29T02:44:59;97896.56;;;21.96;53.20
68137;BME280;54939;50.826;9.030;2023-07-29T02:45:29;97896.56;;;21.96;53.29
68137;BME280;54939;50.826;9.030;2023-07-29T02:45:59;97900.09;;;21.96;53.30
68137;BME280;54939;50.826;9.030;2023-07-29T02:46:30;97891.94;;;21.96;53.26
68137;BME280;54939;50.826;9.030;2023-07-29T02:47:00;97896.56;;;21.96;53.34
68137;BME280;54939;50.826;9.030;2023-07-29T02:47:30;97902.81;;;21.96;53.56
68137;BME280;54939;50.826;9.030;2023-07-29T02:48:00;97903.63;;;21.97;53.68
68137;BME280;54939;50.826;9.030;2023-07-29T02:48:30;97909.06;;;21.97;53.47
68137;BME280;54939;50.826;9.030;2023-07-29T02:49:03;97902.81;;;21.96;53.69